»·PEaware :: AAL231 KABQ-KGJT

AAL231 :: KABQ-KGJT

FLIGHT INFORMATION

Flight Status: Arrived
Operator:
American Airlines
More flights by this operator :: More flights under this callsign
Pilot: Alfonso U. (14209)
Aircraft: BOEING 737-800
(B738)
More flights by this aircraft type
Origin: KABQ Albuquerque Intl Sunport
United States
Destination: KGJT Walker
United States
More flights between these airports :: More routes between these airports
Route: +LARGO3 RSK CESBA
File this flight plan on PilotEdge
Remarks:
Altitude:
(Current/Filed)
36,000ft
Speed:
(Current/Filed)
500kts
Departed: 02-Nov-17 01:21 PM
Arrived: 02-Nov-17 02:14 PM
Distance/Time
Traveled:
262nm/0:53
Distance/Time
To Go:
Arrived

Flight Plot

Page will automatically refresh every two minutes.

Flight plan parsing failed; only flown route is shown


Map Options




Map Legend


Flown Route
Filed Route
Departure Airport
Arrival Airport
Navaid (VOR, NDB)
Fix

Horizontal Profiles

Position Reports

Time Latitude Longitude Heading Altitude Ground
Speed
02-Nov-17 13:13 35.047537 -106.590653 45 5362ft 0kts
02-Nov-17 13:14 35.047537 -106.590653 45 5362ft 0kts
02-Nov-17 13:15 35.047537 -106.590653 45 5362ft 0kts
02-Nov-17 13:16 35.047537 -106.590653 45 5362ft 0kts
02-Nov-17 13:17 35.047537 -106.590653 45 5362ft 0kts
02-Nov-17 13:18 35.047537 -106.590653 45 5362ft 0kts
02-Nov-17 13:19 35.047537 -106.590653 45 5362ft 0kts
02-Nov-17 13:20 35.047537 -106.590653 45 5362ft 0kts
02-Nov-17 13:21 35.047537 -106.590653 45 5362ft 0kts
02-Nov-17 13:22 35.047537 -106.590653 45 5362ft 0kts
02-Nov-17 13:23 35.047537 -106.590653 45 5362ft 0kts
02-Nov-17 13:24 35.047599 -106.590689 299 5362ft 2kts
02-Nov-17 13:25 35.045848 -106.593800 269 5362ft 22kts
02-Nov-17 13:26 35.045791 -106.606507 270 5362ft 51kts
02-Nov-17 13:27 35.045594 -106.620438 269 5362ft 35kts
02-Nov-17 13:28 35.045280 -106.621346 198 5362ft 0kts
02-Nov-17 13:29 35.045280 -106.621346 198 5362ft 0kts
02-Nov-17 13:30 35.044352 -106.620385 90 5362ft 25kts
02-Nov-17 13:31 35.040364 -106.576688 133 6869ft 163kts
02-Nov-17 13:32 34.999579 -106.609309 268 8023ft 292kts
02-Nov-17 13:33 35.018949 -106.705010 285 12283ft 301kts
02-Nov-17 13:34 35.046024 -106.797978 317 16485ft 284kts
02-Nov-17 13:35 35.124669 -106.826148 343 18747ft 331kts
02-Nov-17 13:36 35.225895 -106.843455 346 20148ft 395kts
02-Nov-17 13:37 35.335190 -106.859900 346 22864ft 407kts
02-Nov-17 13:38 35.456075 -106.878290 347 23135ft 478kts
02-Nov-17 13:39 35.590353 -106.898424 347 24191ft 486kts
02-Nov-17 13:40 35.712822 -106.916857 345 28555ft 441kts
02-Nov-17 13:41 35.832859 -106.935205 344 30957ft 434kts
02-Nov-17 13:42 35.951401 -106.953340 345 32943ft 430kts
02-Nov-17 13:43 36.049218 -107.014122 308 34311ft 393kts
02-Nov-17 13:44 36.118538 -107.114264 304 35503ft 388kts
02-Nov-17 13:45 36.185857 -107.217751 303 36185ft 395kts
02-Nov-17 13:46 36.256515 -107.327177 304 36153ft 416kts
02-Nov-17 13:47 36.327818 -107.437909 304 36131ft 415kts
02-Nov-17 13:48 36.398961 -107.548787 304 36122ft 414kts
02-Nov-17 13:49 36.469574 -107.659233 303 36129ft 414kts
02-Nov-17 13:50 36.540658 -107.770789 303 36132ft 414kts
02-Nov-17 13:51 36.611619 -107.882510 303 36131ft 414kts
02-Nov-17 13:52 36.682118 -107.993886 303 36130ft 413kts
02-Nov-17 13:53 36.764598 -108.091549 335 36132ft 439kts
02-Nov-17 13:54 36.886525 -108.115390 346 36154ft 451kts
02-Nov-17 13:55 37.011055 -108.131349 346 36154ft 454kts
02-Nov-17 13:56 37.129046 -108.146420 346 36159ft 446kts
02-Nov-17 13:57 37.250068 -108.162279 346 36164ft 453kts
02-Nov-17 13:58 37.375532 -108.178765 346 34631ft 454kts
02-Nov-17 13:59 37.497934 -108.194840 347 32127ft 441kts
02-Nov-17 14:00 37.617518 -108.210650 347 29632ft 436kts
02-Nov-17 14:01 37.739115 -108.226907 348 27165ft 447kts
02-Nov-17 14:02 37.859039 -108.242773 348 24652ft 429kts
02-Nov-17 14:03 37.973411 -108.257858 348 24213ft 417kts
02-Nov-17 14:04 38.082218 -108.272298 348 24139ft 417kts
02-Nov-17 14:05 38.194892 -108.287297 348 24119ft 417kts
02-Nov-17 14:06 38.309121 -108.302604 348 21796ft 408kts
02-Nov-17 14:07 38.418438 -108.317273 348 19487ft 392kts
02-Nov-17 14:08 38.524094 -108.331547 348 17168ft 378kts
02-Nov-17 14:09 38.623332 -108.357192 318 14836ft 357kts
02-Nov-17 14:10 38.689304 -108.449569 322 12534ft 356kts
02-Nov-17 14:11 38.774972 -108.466600 0 11879ft 277kts
02-Nov-17 14:12 38.841602 -108.466496 359 11001ft 198kts
02-Nov-17 14:13 38.892549 -108.464542 0 10977ft 186kts
02-Nov-17 14:14 38.939806 -108.462419 0 10981ft 158kts
02-Nov-17 14:15 38.985328 -108.458333 355 10925ft 169kts
02-Nov-17 14:16 39.034781 -108.458787 1 9663ft 179kts
02-Nov-17 14:17 39.082465 -108.464165 336 7408ft 172kts
02-Nov-17 14:18 39.112308 -108.503550 306 5406ft 152kts
02-Nov-17 14:19 39.130631 -108.536439 306 4865ft 40kts
02-Nov-17 14:20 39.133227 -108.541133 305 4865ft 1kts
02-Nov-17 14:21 39.132790 -108.542756 126 4865ft 15kts
02-Nov-17 14:22 39.129413 -108.538182 216 4865ft 0kts
02-Nov-17 14:23 39.129413 -108.538182 216 4865ft 0kts

Navigation Log

Ident Type
Flight plan parsing failed, navigation log unavailable